Impacts TAF Board
For situational awareness. Not to be used for flight planning purposes.
IDs:

KCAE - Columbia Metro, SC, US

Issued at 2225 UTC 21 May 2022
Updated at 2308 UTC 21 May 2022
Potential Impact None Slight Moderate High
Time2256Z 22/00Z 22/01Z 22/02Z 22/03Z 22/04Z 22/05Z 22/06Z 22/07Z 22/08Z 22/09Z 22/10Z 22/11Z 22/12Z>>
Type OBS PRVL PRVL PRVL PRVL PRVL PRVL PRVL PRVL PRVL PRVL PRVL PRVL PRVL
VIS 10 >6 >6 >6 >6 >6 >6 >6 >6 >6 >6 >6 >6 >6
CIG 110 120 120 120 80 80 80 80 80 30 30 30 30 30
Cover BKN BKN BKN BKN OVC OVC OVC OVC OVC OVC OVC OVC OVC OVC
FltCat VFR VFR VFR VFR VFR VFR VFR VFR VFR MVFR MVFR MVFR MVFR MVFR
WX -- VCSH VCSH VCSH -- -- -- -- -- -- -- -- -- --
WDir 110 VRB VRB VRB 200 200 200 200 200 210 210 210 210 210
WSpd 8 5 5 5 6 6 6 6 6 4 4 4 4 4
WGst -- -- -- -- -- -- -- -- -- -- -- -- -- --
WSHgt -- -- -- -- -- -- -- -- -- -- -- -- -- --
WSDir -- -- -- -- -- -- -- -- -- -- -- -- -- --
WSSpd -- -- -- -- -- -- -- -- -- -- -- -- -- --
R05/23
XWnd -7 VRB VRB VRB -3 -3 -3 -3 -3 -1 -1 -1 -1 -1
R11/29
XWnd -1 VRB VRB VRB -6 -6 -6 -6 -6 -4 -4 -4 -4 -4
Raw TAF
KCAE 212225Z 2122/2218 VRB05KT P6SM VCSH SCT050 BKN120
  FM220300 20006KT P6SM OVC080
  FM220800 21004KT P6SM OVC030


Raw METAR
KCAE 212256Z 11008KT 10SM FEW030 FEW090 BKN110 24/22 A3013 RMK AO2 LTG DSNT E AND SE SLP200 CB DSNT E AND SE T02390222 $
KCAE 212156Z 00000KT 10SM FEW060 BKN120 23/22 A3013 RMK AO2 SLP199 T02330217 $
KCAE 212056Z 08003KT 10SM FEW050 BKN120 OVC200 24/21 A3012 RMK AO2 LTG DSNT S AND SW SLP196 CB DSNT S AND SW 60116 T02440211 56021 $

METAR Board
Radar Display
Forecast Discussion
For situational awareness. Not to be used for flight planning purposes.